Terminal Aerodrome Forecast
Issued by NWS La Crosse, WI

Home | Current Version | Previous Version | Text Only | Print | Product List | Glossary On
Versions: 1 2 3 4 5 6 7 8 9 10 11 12 13 14 15 16 17 18 19 20 21 22 23 24 25 26 27 28 29 30 31 32 33 34 35 36 37 38 39 40 41 42 43 44 45 46 47 48 49 50
000
FTUS43 KARX 021058 AAB
TAFRST
TAF AMD
KRST 021058Z 0211/0306 VRB03KT 1/4SM FG OVC002
     FM021400 VRB03KT 2SM BR OVC004
     FM021600 VRB03KT 4SM BR OVC006
     FM022000 33006KT 3SM -RA BR OVC008
     FM030300 32008KT 3SM BR OVC008=

USA.gov is the U.S. government's official web portal to all federal, state and local government web resources and services.